sensor_id;sensor_type;location;lat;lon;timestamp;P1;P2;P0
73687;PMS7003;62257;48.376;-4.378;2023-03-01T00:01:16;4.00;4.00;2.00
73687;PMS7003;62257;48.376;-4.378;2023-03-01T00:03:42;4.50;4.50;4.00
73687;PMS7003;62257;48.376;-4.378;2023-03-01T00:06:07;4.25;4.25;4.00
73687;PMS7003;62257;48.376;-4.378;2023-03-01T00:08:33;6.75;5.75;4.50
73687;PMS7003;62257;48.376;-4.378;2023-03-01T00:11:10;7.75;5.00;4.50
73687;PMS7003;62257;48.376;-4.378;2023-03-01T00:13:35;5.75;5.00;5.00
73687;PMS7003;62257;48.376;-4.378;2023-03-01T00:16:11;8.75;7.25;4.50
73687;PMS7003;62257;48.376;-4.378;2023-03-01T00:18:37;6.25;6.25;5.00
73687;PMS7003;62257;48.376;-4.378;2023-03-01T00:21:03;10.25;7.75;5.50
73687;PMS7003;62257;48.376;-4.378;2023-03-01T00:23:28;8.25;8.25;6.00
73687;PMS7003;62257;48.376;-4.378;2023-03-01T00:25:53;5.00;4.00;4.00
73687;PMS7003;62257;48.376;-4.378;2023-03-01T00:28:19;7.50;5.00;2.00
73687;PMS7003;62257;48.376;-4.378;2023-03-01T00:30:44;10.50;10.50;8.75
73687;PMS7003;62257;48.376;-4.378;2023-03-01T00:33:09;2.67;1.00;1.00
73687;PMS7003;62257;48.376;-4.378;2023-03-01T00:35:35;7.50;4.75;4.00
73687;PMS7003;62257;48.376;-4.378;2023-03-01T00:38:00;8.25;7.00;5.25
73687;PMS7003;62257;48.376;-4.378;2023-03-01T00:40:26;8.25;6.00;4.00
73687;PMS7003;62257;48.376;-4.378;2023-03-01T00:42:52;5.75;5.50;4.00
73687;PMS7003;62257;48.376;-4.378;2023-03-01T00:45:17;15.00;12.00;9.00
73687;PMS7003;62257;48.376;-4.378;2023-03-01T00:47:42;6.00;6.00;5.00
73687;PMS7003;62257;48.376;-4.378;2023-03-01T00:50:08;8.50;8.50;6.50
73687;PMS7003;62257;48.376;-4.378;2023-03-01T00:52:34;10.00;9.25;6.00
73687;PMS7003;62257;48.376;-4.378;2023-03-01T00:54:59;12.00;8.50;5.00
73687;PMS7003;62257;48.376;-4.378;2023-03-01T00:57:24;11.33;10.00;8.33
73687;PMS7003;62257;48.376;-4.378;2023-03-01T00:59:49;11.75;9.25;5.25
73687;PMS7003;62257;48.376;-4.378;2023-03-01T01:02:17;13.00;10.00;7.75
73687;PMS7003;62257;48.376;-4.378;2023-03-01T01:04:42;14.00;12.50;9.25
73687;PMS7003;62257;48.376;-4.378;2023-03-01T01:07:08;12.00;9.00;8.00
73687;PMS7003;62257;48.376;-4.378;2023-03-01T01:09:33;20.00;14.50;10.00
73687;PMS7003;62257;48.376;-4.378;2023-03-01T01:11:58;13.00;9.75;8.75
73687;PMS7003;62257;48.376;-4.378;2023-03-01T01:14:23;16.00;14.33;9.33
73687;PMS7003;62257;48.376;-4.378;2023-03-01T01:16:48;16.67;12.67;8.67
73687;PMS7003;62257;48.376;-4.378;2023-03-01T01:19:14;14.75;13.00;9.25
73687;PMS7003;62257;48.376;-4.378;2023-03-01T01:21:39;19.00;15.75;10.00
73687;PMS7003;62257;48.376;-4.378;2023-03-01T01:24:05;16.25;12.75;9.50
73687;PMS7003;62257;48.376;-4.378;2023-03-01T01:26:31;10.25;10.25;8.75
73687;PMS7003;62257;48.376;-4.378;2023-03-01T01:28:57;26.00;22.75;17.00
73687;PMS7003;62257;48.376;-4.378;2023-03-01T01:31:23;23.00;21.00;15.50
73687;PMS7003;62257;48.376;-4.378;2023-03-01T01:33:48;17.50;8.75;6.50
73687;PMS7003;62257;48.376;-4.378;2023-03-01T01:36:14;26.50;16.25;10.50
73687;PMS7003;62257;48.376;-4.378;2023-03-01T01:38:39;24.33;20.00;13.33
73687;PMS7003;62257;48.376;-4.378;2023-03-01T01:41:05;33.75;21.75;14.00
73687;PMS7003;62257;48.376;-4.378;2023-03-01T01:43:33;28.25;23.50;12.75
73687;PMS7003;62257;48.376;-4.378;2023-03-01T01:45:59;30.00;27.50;16.50
73687;PMS7003;62257;48.376;-4.378;2023-03-01T01:48:28;39.25;37.25;25.75
73687;PMS7003;62257;48.376;-4.378;2023-03-01T01:51:05;38.50;30.25;23.75
73687;PMS7003;62257;48.376;-4.378;2023-03-01T01:53:30;28.25;22.75;13.25
73687;PMS7003;62257;48.376;-4.378;2023-03-01T01:55:57;46.50;39.75;24.50
73687;PMS7003;62257;48.376;-4.378;2023-03-01T01:58:23;42.75;37.50;25.50
73687;PMS7003;62257;48.376;-4.378;2023-03-01T02:00:51;45.50;33.75;19.75
73687;PMS7003;62257;48.376;-4.378;2023-03-01T02:03:17;62.25;48.25;29.75
73687;PMS7003;62257;48.376;-4.378;2023-03-01T02:05:47;53.75;44.00;27.75
73687;PMS7003;62257;48.376;-4.378;2023-03-01T02:08:17;49.00;40.00;23.00
73687;PMS7003;62257;48.376;-4.378;2023-03-01T02:10:43;38.00;35.00;25.75
73687;PMS7003;62257;48.376;-4.378;2023-03-01T02:13:10;52.50;43.75;26.75
73687;PMS7003;62257;48.376;-4.378;2023-03-01T02:15:36;46.50;40.50;26.75
73687;PMS7003;62257;48.376;-4.378;2023-03-01T02:18:02;45.25;38.50;23.75
73687;PMS7003;62257;48.376;-4.378;2023-03-01T02:22:53;45.67;38.67;26.67
73687;PMS7003;62257;48.376;-4.378;2023-03-01T02:30:19;41.50;29.00;21.75
73687;PMS7003;62257;48.376;-4.378;2023-03-01T02:32:45;50.50;43.25;28.00
73687;PMS7003;62257;48.376;-4.378;2023-03-01T02:35:12;48.25;37.75;24.75
73687;PMS7003;62257;48.376;-4.378;2023-03-01T02:37:38;43.75;37.00;25.25
73687;PMS7003;62257;48.376;-4.378;2023-03-01T02:40:05;52.25;43.25;28.25
73687;PMS7003;62257;48.376;-4.378;2023-03-01T02:42:36;35.75;29.25;21.25
73687;PMS7003;62257;48.376;-4.378;2023-03-01T02:45:03;55.50;44.25;28.00
73687;PMS7003;62257;48.376;-4.378;2023-03-01T02:47:29;52.75;45.00;28.00
73687;PMS7003;62257;48.376;-4.378;2023-03-01T02:49:54;63.00;49.00;28.50
73687;PMS7003;62257;48.376;-4.378;2023-03-01T02:54:52;53.75;43.00;26.50
73687;PMS7003;62257;48.376;-4.378;2023-03-01T02:57:21;52.00;45.25;28.00
73687;PMS7003;62257;48.376;-4.378;2023-03-01T02:59:47;53.75;41.50;26.25
73687;PMS7003;62257;48.376;-4.378;2023-03-01T03:02:20;61.75;47.25;27.50
73687;PMS7003;62257;48.376;-4.378;2023-03-01T03:04:47;64.50;44.75;29.50
73687;PMS7003;62257;48.376;-4.378;2023-03-01T03:07:12;55.00;43.00;29.75
73687;PMS7003;62257;48.376;-4.378;2023-03-01T03:09:37;63.00;50.00;31.75
73687;PMS7003;62257;48.376;-4.378;2023-03-01T03:12:03;56.25;46.25;28.00
73687;PMS7003;62257;48.376;-4.378;2023-03-01T03:14:28;60.50;46.00;29.25
73687;PMS7003;62257;48.376;-4.378;2023-03-01T03:16:53;61.67;45.00;29.33
73687;PMS7003;62257;48.376;-4.378;2023-03-01T03:19:19;40.00;38.00;26.33
73687;PMS7003;62257;48.376;-4.378;2023-03-01T03:21:44;61.50;47.75;28.75
73687;PMS7003;62257;48.376;-4.378;2023-03-01T03:24:09;64.00;47.00;28.75
73687;PMS7003;62257;48.376;-4.378;2023-03-01T03:26:35;65.25;46.50;31.00
73687;PMS7003;62257;48.376;-4.378;2023-03-01T03:29:00;56.67;45.00;28.33
73687;PMS7003;62257;48.376;-4.378;2023-03-01T03:31:26;54.00;47.50;27.50
73687;PMS7003;62257;48.376;-4.378;2023-03-01T03:33:51;41.50;33.00;24.75
73687;PMS7003;62257;48.376;-4.378;2023-03-01T03:36:17;58.00;42.00;28.00
73687;PMS7003;62257;48.376;-4.378;2023-03-01T03:38:43;57.75;45.00;26.25
73687;PMS7003;62257;48.376;-4.378;2023-03-01T03:41:08;69.00;48.25;28.75
73687;PMS7003;62257;48.376;-4.378;2023-03-01T03:43:34;60.25;46.50;28.00
73687;PMS7003;62257;48.376;-4.378;2023-03-01T03:45:59;58.50;48.25;31.25
73687;PMS7003;62257;48.376;-4.378;2023-03-01T03:48:25;58.50;45.50;25.50
73687;PMS7003;62257;48.376;-4.378;2023-03-01T03:50:52;61.00;46.50;30.25
73687;PMS7003;62257;48.376;-4.378;2023-03-01T03:53:17;62.75;47.00;28.25
73687;PMS7003;62257;48.376;-4.378;2023-03-01T03:55:43;59.25;47.00;31.00
73687;PMS7003;62257;48.376;-4.378;2023-03-01T03:58:09;66.25;46.75;28.00
73687;PMS7003;62257;48.376;-4.378;2023-03-01T04:00:36;61.75;49.75;31.50
73687;PMS7003;62257;48.376;-4.378;2023-03-01T04:03:02;58.50;42.75;28.00
73687;PMS7003;62257;48.376;-4.378;2023-03-01T04:05:28;66.50;50.75;31.75
73687;PMS7003;62257;48.376;-4.378;2023-03-01T04:07:54;48.75;38.25;22.00
73687;PMS7003;62257;48.376;-4.378;2023-03-01T04:10:26;65.25;43.00;26.25
73687;PMS7003;62257;48.376;-4.378;2023-03-01T04:12:51;50.00;41.25;26.00
73687;PMS7003;62257;48.376;-4.378;2023-03-01T04:15:17;66.25;50.50;33.00
73687;PMS7003;62257;48.376;-4.378;2023-03-01T04:17:43;50.00;36.00;20.00
73687;PMS7003;62257;48.376;-4.378;2023-03-01T04:20:19;56.50;43.00;28.50
73687;PMS7003;62257;48.376;-4.378;2023-03-01T04:22:56;63.25;49.25;30.75
73687;PMS7003;62257;48.376;-4.378;2023-03-01T04:25:22;64.00;49.75;31.00
73687;PMS7003;62257;48.376;-4.378;2023-03-01T04:27:48;70.50;55.50;34.50
73687;PMS7003;62257;48.376;-4.378;2023-03-01T04:30:13;48.00;41.75;23.25
73687;PMS7003;62257;48.376;-4.378;2023-03-01T04:32:38;59.75;44.50;30.25
73687;PMS7003;62257;48.376;-4.378;2023-03-01T04:35:04;64.33;48.67;28.00
73687;PMS7003;62257;48.376;-4.378;2023-03-01T04:37:29;65.25;53.50;34.00
73687;PMS7003;62257;48.376;-4.378;2023-03-01T04:39:54;58.75;48.25;30.50
73687;PMS7003;62257;48.376;-4.378;2023-03-01T04:42:20;59.25;49.75;28.00
73687;PMS7003;62257;48.376;-4.378;2023-03-01T04:44:45;64.33;51.00;31.00
73687;PMS7003;62257;48.376;-4.378;2023-03-01T04:47:10;63.25;46.00;31.00
73687;PMS7003;62257;48.376;-4.378;2023-03-01T04:49:36;55.50;45.25;28.50
73687;PMS7003;62257;48.376;-4.378;2023-03-01T04:52:01;56.75;45.75;28.50
73687;PMS7003;62257;48.376;-4.378;2023-03-01T04:54:29;54.75;44.50;29.25
73687;PMS7003;62257;48.376;-4.378;2023-03-01T04:56:55;63.25;45.75;28.75
73687;PMS7003;62257;48.376;-4.378;2023-03-01T04:59:20;64.33;45.33;30.33
73687;PMS7003;62257;48.376;-4.378;2023-03-01T05:01:49;59.75;45.50;31.75
73687;PMS7003;62257;48.376;-4.378;2023-03-01T05:04:14;47.00;39.00;27.00
73687;PMS7003;62257;48.376;-4.378;2023-03-01T05:06:39;53.67;42.67;28.00
73687;PMS7003;62257;48.376;-4.378;2023-03-01T05:09:05;60.25;47.50;28.75
73687;PMS7003;62257;48.376;-4.378;2023-03-01T05:11:30;54.00;45.00;27.00
73687;PMS7003;62257;48.376;-4.378;2023-03-01T05:13:58;53.00;44.00;30.25
73687;PMS7003;62257;48.376;-4.378;2023-03-01T05:16:24;59.67;47.67;30.33
73687;PMS7003;62257;48.376;-4.378;2023-03-01T05:18:49;43.25;33.75;19.75
73687;PMS7003;62257;48.376;-4.378;2023-03-01T05:21:16;63.25;46.25;28.25
73687;PMS7003;62257;48.376;-4.378;2023-03-01T05:23:41;53.00;43.75;26.75
73687;PMS7003;62257;48.376;-4.378;2023-03-01T05:26:07;56.25;46.50;27.50
73687;PMS7003;62257;48.376;-4.378;2023-03-01T05:28:33;55.00;49.75;30.50
73687;PMS7003;62257;48.376;-4.378;2023-03-01T05:30:58;57.25;43.75;27.75
73687;PMS7003;62257;48.376;-4.378;2023-03-01T05:33:24;43.25;38.00;26.25
73687;PMS7003;62257;48.376;-4.378;2023-03-01T05:35:50;56.00;43.25;25.75
73687;PMS7003;62257;48.376;-4.378;2023-03-01T05:38:16;62.75;46.50;27.75
73687;PMS7003;62257;48.376;-4.378;2023-03-01T05:40:43;64.00;47.25;30.25
73687;PMS7003;62257;48.376;-4.378;2023-03-01T05:43:08;58.75;46.25;28.00
73687;PMS7003;62257;48.376;-4.378;2023-03-01T05:45:35;56.00;43.00;26.00
73687;PMS7003;62257;48.376;-4.378;2023-03-01T05:48:01;62.00;43.75;27.50
73687;PMS7003;62257;48.376;-4.378;2023-03-01T05:50:29;55.00;47.00;33.00
73687;PMS7003;62257;48.376;-4.378;2023-03-01T05:53:02;56.00;45.25;28.50
73687;PMS7003;62257;48.376;-4.378;2023-03-01T05:55:29;65.25;51.00;33.00
73687;PMS7003;62257;48.376;-4.378;2023-03-01T05:57:57;56.50;45.00;28.75
73687;PMS7003;62257;48.376;-4.378;2023-03-01T06:00:23;57.50;45.00;27.00
73687;PMS7003;62257;48.376;-4.378;2023-03-01T06:02:48;61.75;50.00;30.50
73687;PMS7003;62257;48.376;-4.378;2023-03-01T06:05:14;51.25;42.50;22.50
73687;PMS7003;62257;48.376;-4.378;2023-03-01T06:07:39;58.50;46.50;25.25
73687;PMS7003;62257;48.376;-4.378;2023-03-01T06:10:05;57.25;44.75;27.75
73687;PMS7003;62257;48.376;-4.378;2023-03-01T06:12:34;69.25;48.75;31.75
73687;PMS7003;62257;48.376;-4.378;2023-03-01T06:15:00;64.50;49.00;31.50
73687;PMS7003;62257;48.376;-4.378;2023-03-01T06:17:25;59.25;42.00;28.50
73687;PMS7003;62257;48.376;-4.378;2023-03-01T06:19:50;52.75;42.50;28.75
73687;PMS7003;62257;48.376;-4.378;2023-03-01T06:22:16;50.67;45.00;29.00
73687;PMS7003;62257;48.376;-4.378;2023-03-01T06:24:41;58.50;41.00;26.75
73687;PMS7003;62257;48.376;-4.378;2023-03-01T06:27:06;57.00;44.67;31.00
73687;PMS7003;62257;48.376;-4.378;2023-03-01T06:29:32;58.25;45.25;27.75
73687;PMS7003;62257;48.376;-4.378;2023-03-01T06:31:57;66.00;45.33;29.00
73687;PMS7003;62257;48.376;-4.378;2023-03-01T06:34:22;64.00;45.67;28.33
73687;PMS7003;62257;48.376;-4.378;2023-03-01T06:36:47;58.50;48.75;30.00
73687;PMS7003;62257;48.376;-4.378;2023-03-01T06:39:13;51.00;33.67;23.00
73687;PMS7003;62257;48.376;-4.378;2023-03-01T06:41:38;63.00;47.00;28.50
73687;PMS7003;62257;48.376;-4.378;2023-03-01T06:44:03;44.00;40.67;29.00
73687;PMS7003;62257;48.376;-4.378;2023-03-01T06:46:28;62.00;47.00;30.50
73687;PMS7003;62257;48.376;-4.378;2023-03-01T06:48:54;67.25;51.50;33.75
73687;PMS7003;62257;48.376;-4.378;2023-03-01T06:51:19;60.00;46.33;29.00
73687;PMS7003;62257;48.376;-4.378;2023-03-01T06:53:45;63.33;50.00;29.33
73687;PMS7003;62257;48.376;-4.378;2023-03-01T06:56:10;40.75;40.75;28.50
73687;PMS7003;62257;48.376;-4.378;2023-03-01T06:58:35;62.67;50.00;31.67
73687;PMS7003;62257;48.376;-4.378;2023-03-01T07:01:05;60.75;48.50;32.25
73687;PMS7003;62257;48.376;-4.378;2023-03-01T07:03:30;57.75;40.00;26.00
73687;PMS7003;62257;48.376;-4.378;2023-03-01T07:05:55;49.33;42.33;29.00
73687;PMS7003;62257;48.376;-4.378;2023-03-01T07:08:20;59.00;46.67;29.67
73687;PMS7003;62257;48.376;-4.378;2023-03-01T07:10:45;65.00;48.00;29.67
73687;PMS7003;62257;48.376;-4.378;2023-03-01T07:13:11;60.33;46.00;29.00
73687;PMS7003;62257;48.376;-4.378;2023-03-01T07:15:36;59.67;42.00;26.67
73687;PMS7003;62257;48.376;-4.378;2023-03-01T07:18:01;67.25;52.00;31.50
73687;PMS7003;62257;48.376;-4.378;2023-03-01T07:20:26;59.33;46.67;29.00
73687;PMS7003;62257;48.376;-4.378;2023-03-01T07:22:52;72.00;52.00;30.25
73687;PMS7003;62257;48.376;-4.378;2023-03-01T07:25:18;59.75;46.75;29.25
73687;PMS7003;62257;48.376;-4.378;2023-03-01T07:27:43;69.00;52.00;33.75
73687;PMS7003;62257;48.376;-4.378;2023-03-01T07:30:08;61.00;46.33;27.67
73687;PMS7003;62257;48.376;-4.378;2023-03-01T07:32:34;60.25;47.75;32.25
73687;PMS7003;62257;48.376;-4.378;2023-03-01T07:34:59;52.33;39.00;27.00
73687;PMS7003;62257;48.376;-4.378;2023-03-01T07:37:24;60.33;48.67;29.33
73687;PMS7003;62257;48.376;-4.378;2023-03-01T07:39:49;51.00;44.00;29.00
73687;PMS7003;62257;48.376;-4.378;2023-03-01T07:42:15;52.00;46.00;28.67
73687;PMS7003;62257;48.376;-4.378;2023-03-01T07:44:40;37.00;31.33;23.00
73687;PMS7003;62257;48.376;-4.378;2023-03-01T07:47:05;41.67;37.33;24.67
73687;PMS7003;62257;48.376;-4.378;2023-03-01T07:49:30;32.00;30.00;21.33
73687;PMS7003;62257;48.376;-4.378;2023-03-01T07:51:55;49.33;43.67;28.33
73687;PMS7003;62257;48.376;-4.378;2023-03-01T07:54:21;34.00;27.50;21.00
73687;PMS7003;62257;48.376;-4.378;2023-03-01T07:56:46;42.00;35.50;23.50
73687;PMS7003;62257;48.376;-4.378;2023-03-01T07:59:11;35.00;30.67;21.00
73687;PMS7003;62257;48.376;-4.378;2023-03-01T08:01:37;38.50;32.75;21.00
73687;PMS7003;62257;48.376;-4.378;2023-03-01T08:04:02;38.00;32.25;21.25
73687;PMS7003;62257;48.376;-4.378;2023-03-01T08:06:29;34.00;31.00;20.00
73687;PMS7003;62257;48.376;-4.378;2023-03-01T08:08:55;35.50;32.00;21.00
73687;PMS7003;62257;48.376;-4.378;2023-03-01T08:11:20;32.00;28.75;19.25
73687;PMS7003;62257;48.376;-4.378;2023-03-01T08:13:47;42.00;33.25;21.50
73687;PMS7003;62257;48.376;-4.378;2023-03-01T08:16:14;38.75;30.50;19.75
73687;PMS7003;62257;48.376;-4.378;2023-03-01T08:18:39;42.25;34.00;19.00
73687;PMS7003;62257;48.376;-4.378;2023-03-01T08:21:05;34.00;27.75;21.50
73687;PMS7003;62257;48.376;-4.378;2023-03-01T08:23:31;36.25;30.25;23.25
73687;PMS7003;62257;48.376;-4.378;2023-03-01T08:26:03;36.33;32.33;20.33
73687;PMS7003;62257;48.376;-4.378;2023-03-01T08:28:28;32.50;28.75;18.50
73687;PMS7003;62257;48.376;-4.378;2023-03-01T08:30:54;36.33;30.67;22.00
73687;PMS7003;62257;48.376;-4.378;2023-03-01T08:33:19;39.33;33.33;18.67
73687;PMS7003;62257;48.376;-4.378;2023-03-01T08:35:44;41.00;35.33;24.00
73687;PMS7003;62257;48.376;-4.378;2023-03-01T08:38:09;34.67;29.67;21.67
73687;PMS7003;62257;48.376;-4.378;2023-03-01T08:40:34;30.33;28.33;20.00
73687;PMS7003;62257;48.376;-4.378;2023-03-01T08:43:00;42.00;33.00;23.00
73687;PMS7003;62257;48.376;-4.378;2023-03-01T08:45:25;35.67;34.67;24.00
73687;PMS7003;62257;48.376;-4.378;2023-03-01T08:47:52;38.00;32.67;21.00
73687;PMS7003;62257;48.376;-4.378;2023-03-01T08:50:17;37.00;27.75;17.00
73687;PMS7003;62257;48.376;-4.378;2023-03-01T08:52:42;30.67;26.67;20.00
73687;PMS7003;62257;48.376;-4.378;2023-03-01T08:55:07;34.50;30.50;20.50
73687;PMS7003;62257;48.376;-4.378;2023-03-01T08:57:33;35.25;29.75;22.00
73687;PMS7003;62257;48.376;-4.378;2023-03-01T08:59:58;26.67;26.33;18.33
73687;PMS7003;62257;48.376;-4.378;2023-03-01T09:02:23;35.25;28.00;18.00
73687;PMS7003;62257;48.376;-4.378;2023-03-01T09:04:48;26.00;23.25;14.50
73687;PMS7003;62257;48.376;-4.378;2023-03-01T09:07:14;27.00;24.67;18.33
73687;PMS7003;62257;48.376;-4.378;2023-03-01T09:09:39;28.67;28.00;20.67
73687;PMS7003;62257;48.376;-4.378;2023-03-01T09:12:04;35.00;27.00;16.75
73687;PMS7003;62257;48.376;-4.378;2023-03-01T09:14:30;28.75;24.50;19.00
73687;PMS7003;62257;48.376;-4.378;2023-03-01T09:16:55;29.00;25.75;16.75
73687;PMS7003;62257;48.376;-4.378;2023-03-01T09:19:20;43.25;35.75;23.75
73687;PMS7003;62257;48.376;-4.378;2023-03-01T09:21:45;41.00;36.33;25.00
73687;PMS7003;62257;48.376;-4.378;2023-03-01T09:24:17;40.50;32.25;21.50
73687;PMS7003;62257;48.376;-4.378;2023-03-01T09:26:43;39.25;37.50;25.00
73687;PMS7003;62257;48.376;-4.378;2023-03-01T09:29:11;36.75;31.25;22.75
73687;PMS7003;62257;48.376;-4.378;2023-03-01T09:31:36;38.00;32.75;21.50
73687;PMS7003;62257;48.376;-4.378;2023-03-01T09:34:02;48.33;42.00;28.00
73687;PMS7003;62257;48.376;-4.378;2023-03-01T09:36:27;28.00;27.00;17.00
73687;PMS7003;62257;48.376;-4.378;2023-03-01T09:38:52;31.33;29.67;21.33
73687;PMS7003;62257;48.376;-4.378;2023-03-01T09:41:41;37.75;31.50;23.25
73687;PMS7003;62257;48.376;-4.378;2023-03-01T09:46:36;42.00;33.75;22.50
73687;PMS7003;62257;48.376;-4.378;2023-03-01T09:49:05;42.50;35.00;22.00
73687;PMS7003;62257;48.376;-4.378;2023-03-01T09:51:33;51.50;40.00;25.50
73687;PMS7003;62257;48.376;-4.378;2023-03-01T09:54:00;37.25;35.25;24.00
73687;PMS7003;62257;48.376;-4.378;2023-03-01T10:01:30;42.25;31.25;20.50
73687;PMS7003;62257;48.376;-4.378;2023-03-01T10:06:44;47.00;31.25;21.00
73687;PMS7003;62257;48.376;-4.378;2023-03-01T10:09:14;46.50;40.25;27.50
73687;PMS7003;62257;48.376;-4.378;2023-03-01T10:11:45;36.50;32.50;22.00
73687;PMS7003;62257;48.376;-4.378;2023-03-01T10:16:57;38.50;33.75;24.75
73687;PMS7003;62257;48.376;-4.378;2023-03-01T10:19:28;51.25;41.00;26.75
73687;PMS7003;62257;48.376;-4.378;2023-03-01T10:21:55;33.75;27.50;20.75
73687;PMS7003;62257;48.376;-4.378;2023-03-01T10:24:22;57.25;45.00;28.25
73687;PMS7003;62257;48.376;-4.378;2023-03-01T10:26:54;50.25;39.00;26.00
73687;PMS7003;62257;48.376;-4.378;2023-03-01T10:29:23;41.50;37.00;23.75
73687;PMS7003;62257;48.376;-4.378;2023-03-01T10:31:50;26.75;25.00;16.50
73687;PMS7003;62257;48.376;-4.378;2023-03-01T10:34:27;53.25;41.00;25.25
73687;PMS7003;62257;48.376;-4.378;2023-03-01T10:36:53;48.75;39.75;25.50
73687;PMS7003;62257;48.376;-4.378;2023-03-01T10:39:23;49.75;39.00;25.75
73687;PMS7003;62257;48.376;-4.378;2023-03-01T10:42:02;40.25;32.75;25.25
73687;PMS7003;62257;48.376;-4.378;2023-03-01T10:44:35;39.00;35.25;24.00
73687;PMS7003;62257;48.376;-4.378;2023-03-01T10:47:00;46.75;40.00;25.25
73687;PMS7003;62257;48.376;-4.378;2023-03-01T10:49:29;47.25;37.25;22.25
73687;PMS7003;62257;48.376;-4.378;2023-03-01T10:51:54;50.50;42.75;26.75
73687;PMS7003;62257;48.376;-4.378;2023-03-01T10:54:29;44.00;32.00;22.75
73687;PMS7003;62257;48.376;-4.378;2023-03-01T10:56:56;43.00;37.25;25.25
73687;PMS7003;62257;48.376;-4.378;2023-03-01T11:04:37;39.25;36.50;25.25
73687;PMS7003;62257;48.376;-4.378;2023-03-01T11:07:02;45.25;38.75;25.00
73687;PMS7003;62257;48.376;-4.378;2023-03-01T11:09:31;57.00;42.00;28.00
73687;PMS7003;62257;48.376;-4.378;2023-03-01T11:12:02;37.50;33.00;21.50
73687;PMS7003;62257;48.376;-4.378;2023-03-01T11:14:47;51.25;40.50;26.75
73687;PMS7003;62257;48.376;-4.378;2023-03-01T11:17:15;55.50;42.00;27.25
73687;PMS7003;62257;48.376;-4.378;2023-03-01T11:19:42;40.75;31.25;20.25
73687;PMS7003;62257;48.376;-4.378;2023-03-01T11:22:16;40.67;34.33;22.67
73687;PMS7003;62257;48.376;-4.378;2023-03-01T11:24:53;46.00;39.25;25.00
73687;PMS7003;62257;48.376;-4.378;2023-03-01T11:27:26;61.50;45.50;30.75
73687;PMS7003;62257;48.376;-4.378;2023-03-01T11:30:06;55.00;41.00;24.50
73687;PMS7003;62257;48.376;-4.378;2023-03-01T11:32:35;57.00;45.75;29.75
73687;PMS7003;62257;48.376;-4.378;2023-03-01T11:35:12;57.25;45.00;28.25
73687;PMS7003;62257;48.376;-4.378;2023-03-01T11:40:24;54.00;44.25;29.25
73687;PMS7003;62257;48.376;-4.378;2023-03-01T11:42:53;59.75;45.00;28.25
73687;PMS7003;62257;48.376;-4.378;2023-03-01T11:45:22;62.00;46.50;29.25
73687;PMS7003;62257;48.376;-4.378;2023-03-01T11:47:55;59.00;47.25;28.75
73687;PMS7003;62257;48.376;-4.378;2023-03-01T11:52:55;59.33;45.33;29.00
73687;PMS7003;62257;48.376;-4.378;2023-03-01T12:11:01;55.00;45.00;31.67
73687;PMS7003;62257;48.376;-4.378;2023-03-01T12:36:13;45.50;39.00;26.25
73687;PMS7003;62257;48.376;-4.378;2023-03-01T12:51:51;50.75;40.50;27.00
73687;PMS7003;62257;48.376;-4.378;2023-03-01T12:54:52;52.50;39.50;25.50
73687;PMS7003;62257;48.376;-4.378;2023-03-01T13:02:35;42.00;37.25;26.50
73687;PMS7003;62257;48.376;-4.378;2023-03-01T13:08:01;49.50;39.25;24.00
73687;PMS7003;62257;48.376;-4.378;2023-03-01T13:10:48;55.50;44.00;29.00
73687;PMS7003;62257;48.376;-4.378;2023-03-01T13:13:24;44.00;39.75;25.25
73687;PMS7003;62257;48.376;-4.378;2023-03-01T13:15:50;53.50;43.75;27.25
73687;PMS7003;62257;48.376;-4.378;2023-03-01T13:20:51;37.00;30.25;23.00
73687;PMS7003;62257;48.376;-4.378;2023-03-01T13:31:04;50.00;39.25;24.25
73687;PMS7003;62257;48.376;-4.378;2023-03-01T13:35:55;46.67;37.67;25.00
73687;PMS7003;62257;48.376;-4.378;2023-03-01T13:41:06;42.25;32.25;20.00
73687;PMS7003;62257;48.376;-4.378;2023-03-01T13:45:57;43.25;37.75;24.75
73687;PMS7003;62257;48.376;-4.378;2023-03-01T13:48:27;47.50;38.75;26.00
73687;PMS7003;62257;48.376;-4.378;2023-03-01T13:51:03;45.50;37.00;24.00
73687;PMS7003;62257;48.376;-4.378;2023-03-01T13:53:31;51.25;40.50;27.75
73687;PMS7003;62257;48.376;-4.378;2023-03-01T13:55:59;45.00;38.25;25.75
73687;PMS7003;62257;48.376;-4.378;2023-03-01T14:03:22;41.00;35.75;21.75
73687;PMS7003;62257;48.376;-4.378;2023-03-01T14:08:49;50.00;42.00;27.00
73687;PMS7003;62257;48.376;-4.378;2023-03-01T14:16:15;40.67;36.00;24.67
73687;PMS7003;62257;48.376;-4.378;2023-03-01T14:21:11;51.33;39.00;25.00
73687;PMS7003;62257;48.376;-4.378;2023-03-01T14:23:38;46.50;38.25;25.25
73687;PMS7003;62257;48.376;-4.378;2023-03-01T14:26:07;51.50;40.50;25.75
73687;PMS7003;62257;48.376;-4.378;2023-03-01T14:28:33;46.25;36.00;23.75
73687;PMS7003;62257;48.376;-4.378;2023-03-01T14:31:02;55.75;44.25;28.50
73687;PMS7003;62257;48.376;-4.378;2023-03-01T14:33:32;53.25;39.75;24.75
73687;PMS7003;62257;48.376;-4.378;2023-03-01T14:40:57;36.75;28.50;21.00
73687;PMS7003;62257;48.376;-4.378;2023-03-01T14:43:23;45.50;39.50;23.50
73687;PMS7003;62257;48.376;-4.378;2023-03-01T14:45:50;55.50;39.50;26.25
73687;PMS7003;62257;48.376;-4.378;2023-03-01T14:48:16;42.50;38.50;25.00
73687;PMS7003;62257;48.376;-4.378;2023-03-01T14:50:42;61.50;48.00;30.25
73687;PMS7003;62257;48.376;-4.378;2023-03-01T14:53:27;56.00;40.50;27.00
73687;PMS7003;62257;48.376;-4.378;2023-03-01T14:55:59;55.00;42.25;26.25
73687;PMS7003;62257;48.376;-4.378;2023-03-01T14:58:27;48.50;40.50;25.75
73687;PMS7003;62257;48.376;-4.378;2023-03-01T15:00:56;49.00;39.25;24.25
73687;PMS7003;62257;48.376;-4.378;2023-03-01T15:06:07;43.25;36.75;23.00
73687;PMS7003;62257;48.376;-4.378;2023-03-01T15:08:33;56.50;44.25;29.25
73687;PMS7003;62257;48.376;-4.378;2023-03-01T15:13:26;43.67;36.67;25.00
73687;PMS7003;62257;48.376;-4.378;2023-03-01T15:15:59;32.00;28.75;23.75
73687;PMS7003;62257;48.376;-4.378;2023-03-01T15:18:27;42.50;30.25;20.00
73687;PMS7003;62257;48.376;-4.378;2023-03-01T15:20:53;47.75;41.00;24.00
73687;PMS7003;62257;48.376;-4.378;2023-03-01T15:23:20;36.25;31.25;22.50
73687;PMS7003;62257;48.376;-4.378;2023-03-01T15:25:46;48.00;38.75;26.25
73687;PMS7003;62257;48.376;-4.378;2023-03-01T15:28:15;42.50;31.75;20.75
73687;PMS7003;62257;48.376;-4.378;2023-03-01T15:30:42;42.25;36.75;24.00
73687;PMS7003;62257;48.376;-4.378;2023-03-01T15:35:58;42.00;38.25;25.75
73687;PMS7003;62257;48.376;-4.378;2023-03-01T15:40:59;47.50;39.25;23.50
73687;PMS7003;62257;48.376;-4.378;2023-03-01T15:43:38;53.75;38.50;25.25
73687;PMS7003;62257;48.376;-4.378;2023-03-01T15:46:03;34.50;30.25;17.25
73687;PMS7003;62257;48.376;-4.378;2023-03-01T15:48:29;51.00;39.25;25.75
73687;PMS7003;62257;48.376;-4.378;2023-03-01T15:50:55;41.75;38.25;24.50
73687;PMS7003;62257;48.376;-4.378;2023-03-01T15:53:21;36.75;31.25;20.25
73687;PMS7003;62257;48.376;-4.378;2023-03-01T15:55:47;35.75;29.25;20.25
73687;PMS7003;62257;48.376;-4.378;2023-03-01T15:58:21;50.50;42.50;28.00